Time;durP1;ratioP1;P1;durP2;ratioP2;P2;SDS_P1;SDS_P2;PMS_P1;PMS_P2;Temp;Humidity;BMP_temperature;BMP_pressure;BME280_temperature;BME280_humidity;BME280_pressure;Samples;Min_cycle;Max_cycle;Signal;HPM_P1;HPM_P2
2022/04/28 17:36:24;;;;;;;9.63;2.97;;;;;;;9.31;37.78;100022.00;5001008;28;20398;-75
2022/04/28 17:38:50;;;;;;;6.35;3.20;;;;;;;9.12;37.35;99990.81;4992205;28;20041;-76
2022/04/28 17:41:17;;;;;;;8.45;3.78;;;;;;;9.26;36.91;100006.44;4992137;28;20034;-78
2022/04/28 17:43:45;;;;;;;10.18;3.22;;;;;;;9.24;36.71;100007.25;4991875;28;20101;-78
2022/04/28 17:46:11;;;;;;;5.32;2.60;;;;;;;9.36;36.91;100015.13;4986810;28;20038;-76
2022/04/28 17:48:36;;;;;;;5.05;2.40;;;;;;;9.27;36.53;100018.50;5002807;28;20497;-76
2022/04/28 17:51:03;;;;;;;7.50;2.80;;;;;;;9.31;36.82;100030.63;5022625;28;20465;-80
2022/04/28 17:53:30;;;;;;;6.82;2.50;;;;;;;9.29;36.98;100031.44;5004174;28;20142;-76
2022/04/28 18:01:26;;;;;;;5.75;3.20;;;;;;;9.04;37.15;100001.94;5023819;28;20038;-78
2022/04/28 18:03:53;;;;;;;8.40;2.80;;;;;;;8.90;37.11;100002.72;4972647;28;20040;-80
2022/04/28 18:06:19;;;;;;;5.22;2.80;;;;;;;9.02;37.15;100019.16;4987303;28;20049;-80
2022/04/28 18:08:44;;;;;;;8.35;3.83;;;;;;;9.00;37.30;100016.59;4982792;28;20030;-76
2022/04/28 18:11:10;;;;;;;6.72;3.63;;;;;;;8.86;37.39;99995.78;4973670;28;20057;-76
2022/04/28 18:13:36;;;;;;;;;;;;;;;9.01;37.89;100033.84;4991700;28;20041;-75
2022/04/28 18:16:02;;;;;;;5.18;2.78;;;;;;;8.86;37.78;100008.72;5008966;28;19922;-76
2022/04/28 18:18:27;;;;;;;9.32;3.40;;;;;;;8.72;38.06;99988.75;4991558;28;20061;-76
2022/04/28 18:20:53;;;;;;;8.23;3.35;;;;;;;8.88;37.83;100024.22;5040002;28;20492;-76
2022/04/28 18:23:19;;;;;;;;;;;;;;;8.93;38.24;100032.91;5006830;28;20041;-77
2022/04/28 18:25:45;;;;;;;11.30;3.60;;;;;;;8.73;38.19;100009.44;5036065;28;20462;-77
2022/04/28 18:28:10;;;;;;;;;;;;;;;8.84;38.53;100048.34;4991523;28;20087;-76
2022/04/28 18:30:36;;;;;;;13.32;3.78;;;;;;;8.78;37.97;100027.59;5012392;28;20288;-76
2022/04/28 18:33:03;;;;;;;6.35;3.63;;;;;;;8.67;38.04;100014.59;5006815;28;20022;-77
2022/04/28 18:46:46;;;;;;;7.50;4.25;;;;;;;8.51;42.71;100065.25;4981348;28;20132;-80
2022/04/28 18:49:12;;;;;;;7.85;4.32;;;;;;;8.32;43.74;100065.88;4992790;28;20462;-76
2022/04/28 18:51:39;;;;;;;8.68;4.72;;;;;;;8.06;44.08;100035.44;4990898;28;20034;-77
2022/04/28 18:54:05;;;;;;;6.78;4.15;;;;;;;8.04;44.97;100044.88;5022125;28;20032;-76
2022/04/28 18:56:31;;;;;;;6.78;3.42;;;;;;;8.11;44.68;100048.44;4976542;28;20038;-77
2022/04/28 18:58:57;;;;;;;5.28;3.47;;;;;;;8.22;44.65;100064.91;4977154;28;20042;-75
2022/04/28 19:01:25;;;;;;;6.47;3.70;;;;;;;8.16;45.00;100077.78;4992956;28;20045;-77
2022/04/28 19:03:51;;;;;;;7.60;3.90;;;;;;;7.92;46.14;100049.88;4993155;28;20026;-79
2022/04/28 19:06:17;;;;;;;5.72;3.88;;;;;;;8.00;46.26;100076.69;5007016;28;20101;-76
2022/04/28 19:08:42;;;;;;;6.97;3.78;;;;;;;7.97;46.35;100061.19;4959164;28;20026;-76
2022/04/28 19:11:08;;;;;;;7.28;3.90;;;;;;;7.95;46.46;100062.84;4977311;28;20046;-76
2022/04/28 19:13:34;;;;;;;6.32;3.45;;;;;;;7.96;47.80;100084.38;4977845;28;20026;-76
2022/04/28 19:16:00;;;;;;;7.50;3.90;;;;;;;7.89;48.29;100073.13;5003048;28;20587;-76
2022/04/28 19:18:26;;;;;;;5.22;3.50;;;;;;;7.79;47.90;100053.16;4976471;28;20501;-75
2022/04/28 19:20:52;;;;;;;6.25;4.00;;;;;;;7.81;48.61;100085.06;5006812;28;20045;-76
2022/04/28 19:23:17;;;;;;;5.20;3.50;;;;;;;7.70;49.02;100068.53;4992772;28;20053;-76
2022/04/28 19:25:43;;;;;;;8.88;3.65;;;;;;;7.60;49.38;100070.97;4992305;28;20026;-76
2022/04/28 19:28:09;;;;;;;;;;;;;;;7.57;50.42;100089.03;4993945;28;20069;-75
2022/04/28 19:30:35;;;;;;;6.10;3.60;;;;;;;7.43;50.73;100077.63;4997562;28;19918;-77
2022/04/28 19:33:04;;;;;;;4.13;2.97;;;;;;;7.63;50.23;100093.41;4990905;28;20037;-76
2022/04/28 19:35:32;;;;;;;8.93;3.20;;;;;;;7.24;50.58;100062.69;4987751;28;20058;-76
2022/04/28 19:37:59;;;;;;;7.57;3.08;;;;;;;7.32;50.76;100086.91;4989377;28;20053;-76
2022/04/28 19:40:25;;;;;;;5.82;2.97;;;;;;;7.34;51.84;100106.75;4983093;28;20117;-75
2022/04/28 19:42:50;;;;;;;6.40;3.33;;;;;;;7.38;51.32;100105.94;5004072;28;20113;-75
2022/04/28 19:45:16;;;;;;;6.03;3.30;;;;;;;7.36;51.92;100117.06;4975536;28;20030;-76
2022/04/28 19:47:42;;;;;;;7.57;3.35;;;;;;;7.24;51.52;100098.81;4976524;28;20405;-76
2022/04/28 19:50:08;;;;;;;9.15;3.55;;;;;;;7.30;51.32;100110.13;5001092;28;20117;-76
2022/04/28 19:52:33;;;;;;;5.85;3.45;;;;;;;7.32;51.46;100117.88;4970594;28;20120;-75
2022/04/28 19:54:59;;;;;;;5.82;3.42;;;;;;;7.24;51.51;100093.66;4999908;28;20062;-75
2022/04/28 19:57:25;;;;;;;;;;;;;;;7.19;51.99;100118.50;4983235;28;20517;-76
2022/04/28 19:59:51;;;;;;;8.18;4.65;;;;;;;7.20;51.44;100103.06;5023841;28;19924;-76
2022/04/28 20:02:24;;;;;;;5.38;3.80;;;;;;;7.24;51.68;100101.38;4994426;28;20035;-77
2022/04/28 20:04:53;;;;;;;8.07;4.85;;;;;;;7.23;51.87;100117.72;4992862;28;20048;-76
2022/04/28 20:07:21;;;;;;;7.22;4.82;;;;;;;7.27;51.83;100127.25;4994507;28;20121;-76
2022/04/28 20:09:48;;;;;;;6.55;4.25;;;;;;;7.15;52.31;100120.19;4976808;28;20042;-76
2022/04/28 20:12:15;;;;;;;9.70;4.20;;;;;;;7.01;52.15;100112.22;4979735;28;20114;-76
2022/04/28 20:14:42;;;;;;;8.13;4.40;;;;;;;6.82;52.52;100076.59;5025183;28;20034;-75
2022/04/28 20:17:08;;;;;;;8.45;5.00;;;;;;;7.05;51.78;100121.72;5025202;28;20049;-75
2022/04/28 20:19:34;;;;;;;6.75;3.55;;;;;;;7.04;51.86;100114.81;4992786;28;20046;-75
2022/04/28 20:21:59;;;;;;;5.28;3.30;;;;;;;7.07;51.15;100137.25;4993658;28;20038;-76
2022/04/28 20:24:25;;;;;;;7.90;3.42;;;;;;;6.89;50.59;100114.56;5009084;28;20046;-79
2022/04/28 20:26:51;;;;;;;5.75;3.20;;;;;;;7.02;50.14;100137.16;4994018;28;20044;-76
2022/04/28 20:29:17;;;;;;;6.00;3.00;;;;;;;6.86;50.30;100101.59;4978320;28;20042;-75
2022/04/28 20:31:42;;;;;;;8.00;3.38;;;;;;;7.08;50.60;100133.81;5008714;28;20061;-76
2022/04/28 20:34:11;;;;;;;6.05;3.35;;;;;;;7.02;51.23;100132.00;4992342;28;20141;-77
2022/04/28 20:36:38;;;;;;;6.38;3.13;;;;;;;6.98;51.40;100145.69;5008679;28;20121;-78
2022/04/28 20:39:05;;;;;;;5.85;3.30;;;;;;;6.94;51.12;100146.47;4992050;28;20070;-76
2022/04/28 20:41:31;;;;;;;8.73;3.30;;;;;;;6.90;51.48;100128.31;5024783;28;20034;-75
2022/04/28 20:43:57;;;;;;;5.32;3.50;;;;;;;7.09;50.74;100148.44;5008591;28;20049;-75
2022/04/28 20:46:22;;;;;;;5.00;3.20;;;;;;;6.92;50.47;100109.47;4993474;28;20034;-75
2022/04/28 20:48:48;;;;;;;5.63;2.90;;;;;;;7.16;50.23;100132.25;5024444;28;20061;-76
2022/04/28 20:51:14;;;;;;;5.15;2.95;;;;;;;7.22;49.79;100144.38;5024800;28;20104;-75
2022/04/28 20:53:43;;;;;;;8.48;3.40;;;;;;;7.08;49.44;100120.91;5024938;28;20042;-76
2022/04/28 20:56:08;;;;;;;4.95;2.90;;;;;;;7.11;49.00;100127.00;5009862;28;20042;-75
2022/04/28 20:58:34;;;;;;;6.85;2.80;;;;;;;7.15;48.48;100115.03;5024681;28;20050;-75
2022/04/28 21:01:00;;;;;;;7.72;3.50;;;;;;;7.37;47.93;100160.09;4993435;28;20049;-76
2022/04/28 21:03:26;;;;;;;7.45;3.40;;;;;;;7.27;48.17;100160.78;5003749;28;20079;-75
2022/04/28 21:05:54;;;;;;;5.72;3.20;;;;;;;7.24;48.86;100174.53;4982913;28;20030;-75
2022/04/28 21:08:20;;;;;;;5.50;2.97;;;;;;;7.20;48.58;100172.75;4989892;28;20508;-75
2022/04/28 21:10:47;;;;;;;6.70;2.85;;;;;;;7.08;49.61;100173.38;5008145;28;20045;-76
2022/04/28 21:13:13;;;;;;;5.82;2.97;;;;;;;7.14;49.46;100165.72;4993082;28;20062;-75
2022/04/28 21:15:39;;;;;;;;;;;;;;;7.01;50.32;100173.22;4992311;28;20654;-75
2022/04/28 21:18:05;;;;;;;5.82;2.90;;;;;;;6.97;50.69;100174.03;4993302;28;19918;-76
2022/04/28 21:20:31;;;;;;;8.95;3.20;;;;;;;6.79;50.73;100159.94;4991707;28;20045;-75
2022/04/28 21:22:57;;;;;;;6.65;2.78;;;;;;;6.80;51.17;100171.13;4991872;28;20057;-76
2022/04/28 21:25:23;;;;;;;4.00;2.60;;;;;;;6.77;51.55;100176.22;4974389;28;20049;-75
2022/04/28 21:27:51;;;;;;;4.75;2.63;;;;;;;6.76;51.42;100171.91;4979262;28;20096;-76
2022/04/28 21:30:17;;;;;;;4.40;2.45;;;;;;;6.75;51.94;100160.72;4979957;28;20088;-75
2022/04/28 21:32:43;;;;;;;8.23;2.80;;;;;;;6.84;51.54;100184.09;4988859;28;20042;-75
2022/04/28 21:35:10;;;;;;;10.52;3.47;;;;;;;6.57;51.27;100140.59;5007494;28;20058;-76
2022/04/28 21:37:36;;;;;;;9.25;3.38;;;;;;;6.62;52.19;100167.34;5007967;28;20505;-74
2022/04/28 21:40:07;;;;;;;6.95;2.67;;;;;;;6.60;52.69;100165.59;5008619;28;20049;-75
2022/04/28 21:42:33;;;;;;;8.32;3.00;;;;;;;6.49;52.31;100151.59;5014220;28;20125;-74
2022/04/28 21:44:58;;;;;;;6.78;2.47;;;;;;;6.63;52.44;100174.22;4971573;28;20190;-75
2022/04/28 21:47:25;;;;;;;4.50;3.03;;;;;;;6.63;52.70;100155.31;4992082;28;20086;-75
2022/04/28 21:49:51;;;;;;;7.22;3.00;;;;;;;6.62;52.73;100166.47;4995519;28;20042;-75
2022/04/28 21:52:18;;;;;;;6.70;2.55;;;;;;;6.70;52.55;100174.38;4971799;28;20477;-75
2022/04/28 21:54:44;;;;;;;5.82;2.15;;;;;;;6.69;53.06;100175.19;4983132;28;20035;-74
2022/04/28 21:57:12;;;;;;;5.40;2.20;;;;;;;6.73;53.39;100174.41;5005969;28;20096;-76
2022/04/28 21:59:42;;;;;;;5.25;2.35;;;;;;;6.59;53.17;100164.69;4975563;28;20408;-75
2022/04/28 22:02:08;;;;;;;5.35;2.50;;;;;;;6.68;53.64;100176.03;4956928;28;20043;-75
2022/04/28 22:12:47;;;;;;;3.50;1.95;;;;;;;6.65;52.83;100170.84;5019010;28;20046;-75
2022/04/28 22:15:13;;;;;;;5.50;2.13;;;;;;;6.81;53.00;100188.34;5007166;28;20031;-74
2022/04/28 22:17:39;;;;;;;4.65;1.80;;;;;;;6.83;53.50;100191.81;4992390;28;20042;-76
2022/04/28 22:20:05;;;;;;;4.53;2.05;;;;;;;6.70;53.67;100195.88;4992326;28;20042;-75
2022/04/28 22:22:31;;;;;;;4.35;2.03;;;;;;;6.66;54.37;100177.72;4979843;28;20045;-74
2022/04/28 22:24:57;;;;;;;8.18;2.45;;;;;;;6.70;54.29;100193.28;5011037;28;20370;-74
2022/04/28 22:27:22;;;;;;;;;;;;;;;6.67;54.92;100185.47;5027449;28;20050;-74
2022/04/28 22:32:34;;;;;;;3.92;2.03;;;;;;;6.53;54.51;100177.47;5027229;28;20445;-74
2022/04/28 22:35:03;;;;;;;4.35;2.30;;;;;;;6.40;54.64;100179.75;4995700;28;20054;-75
2022/04/28 22:37:30;;;;;;;5.00;2.20;;;;;;;6.44;54.80;100176.41;5009055;28;20073;-74
2022/04/28 22:39:56;;;;;;;6.10;2.53;;;;;;;6.41;55.23;100172.06;4995386;28;20034;-74
2022/04/28 22:42:22;;;;;;;4.97;1.90;;;;;;;6.24;55.99;100152.81;4994393;28;20133;-75
2022/04/28 22:44:47;;;;;;;;;;;;;;;6.30;56.90;100178.69;5027356;28;20038;-75
2022/04/28 22:47:15;;;;;;;4.53;2.10;;;;;;;6.34;55.88;100165.91;4983382;28;20417;-74
2022/04/28 22:49:40;;;;;;;3.42;2.03;;;;;;;6.38;56.49;100163.41;4990970;28;20038;-75
2022/04/28 22:52:06;;;;;;;3.60;1.98;;;;;;;6.36;55.90;100165.94;4995244;28;20132;-75
2022/04/28 22:54:33;;;;;;;3.63;2.20;;;;;;;6.17;56.73;100140.63;5023736;28;20053;-75
2022/04/28 22:56:59;;;;;;;6.55;2.92;;;;;;;6.22;56.60;100152.75;4994682;28;20042;-75
2022/04/28 22:59:25;;;;;;;;;;;;;;;6.20;56.59;100166.47;5002662;28;20042;-75
2022/04/28 23:01:51;;;;;;;5.18;3.08;;;;;;;6.20;57.25;100162.19;5002824;28;19917;-75
2022/04/28 23:04:16;;;;;;;5.35;3.00;;;;;;;6.16;57.12;100167.22;4985899;28;20042;-75
2022/04/28 23:06:42;;;;;;;7.65;3.80;;;;;;;6.22;57.10;100163.06;4991872;28;20065;-75
2022/04/28 23:09:08;;;;;;;7.43;4.13;;;;;;;6.12;57.02;100150.84;4995214;28;20053;-75
2022/04/28 23:11:33;;;;;;;6.47;4.00;;;;;;;6.15;57.31;100176.66;5009910;28;20038;-76
2022/04/28 23:13:59;;;;;;;9.25;4.90;;;;;;;6.17;57.01;100171.53;4994889;28;20038;-76
2022/04/28 23:16:25;;;;;;;6.97;4.90;;;;;;;6.03;56.82;100166.09;4984389;28;20034;-75
2022/04/28 23:18:51;;;;;;;6.78;4.38;;;;;;;6.08;57.29;100175.66;4975831;28;20042;-74
2022/04/28 23:21:16;;;;;;;7.20;4.10;;;;;;;6.04;57.17;100172.97;4993886;28;20493;-75
2022/04/28 23:23:42;;;;;;;6.38;3.95;;;;;;;6.01;56.86;100178.94;4994671;28;20061;-76
2022/04/28 23:26:08;;;;;;;4.72;3.30;;;;;;;5.95;57.72;100165.91;4994372;28;20042;-75
2022/04/28 23:28:34;;;;;;;6.47;3.58;;;;;;;5.88;57.58;100164.00;5026039;28;20046;-75
2022/04/28 23:30:59;;;;;;;6.72;3.75;;;;;;;6.09;58.16;100173.94;5012099;28;20050;-75
2022/04/28 23:33:25;;;;;;;7.25;3.50;;;;;;;6.07;57.34;100179.06;4986621;28;20115;-75
2022/04/28 23:38:35;;;;;;;7.05;3.05;;;;;;;5.87;57.88;100157.13;4969818;28;20042;-75
2022/04/28 23:41:01;;;;;;;5.15;2.75;;;;;;;5.93;58.03;100172.75;5025922;28;20512;-74
2022/04/28 23:43:30;;;;;;;5.45;2.33;;;;;;;5.77;58.36;100168.94;5009416;28;20038;-75
2022/04/28 23:45:56;;;;;;;3.65;2.67;;;;;;;5.73;58.41;100174.84;5013389;28;20106;-76
2022/04/28 23:48:22;;;;;;;7.20;2.50;;;;;;;5.73;58.57;100173.97;4973107;28;20413;-75
2022/04/28 23:50:49;;;;;;;7.45;2.60;;;;;;;5.69;58.42;100169.56;4985211;28;20129;-74
2022/04/28 23:55:59;;;;;;;5.53;2.67;;;;;;;5.55;58.82;100164.97;5011702;28;20034;-75
2022/04/28 23:58:24;;;;;;;4.05;2.47;;;;;;;5.65;58.71;100176.34;5008805;28;20034;-74
